createdAt,value
2023-03-12T00:01:29.980Z,58.57
2023-03-12T00:03:59.427Z,57.73
2023-03-12T00:06:27.938Z,58.65
2023-03-12T00:08:56.620Z,58.20
2023-03-12T00:11:25.063Z,57.31
2023-03-12T00:13:56.344Z,58.23
2023-03-12T00:16:25.671Z,57.44
2023-03-12T00:18:55.667Z,57.52
2023-03-12T00:21:25.078Z,58.24
2023-03-12T00:23:53.848Z,58.07
2023-03-12T00:26:23.071Z,58.54
2023-03-12T00:28:52.665Z,58.63
2023-03-12T00:31:27.768Z,58.78
2023-03-12T00:33:56.962Z,58.56
2023-03-12T00:36:27.124Z,58.42
2023-03-12T00:38:57.454Z,58.29
2023-03-12T00:41:27.227Z,58.82
2023-03-12T00:43:56.688Z,58.00
2023-03-12T00:46:26.101Z,58.20
2023-03-12T00:48:54.728Z,58.14
2023-03-12T00:51:23.225Z,58.32
2023-03-12T00:53:51.786Z,58.30
2023-03-12T00:56:20.481Z,58.32
2023-03-12T00:58:48.948Z,58.15
2023-03-12T01:01:17.831Z,59.21
2023-03-12T01:03:46.772Z,59.03
2023-03-12T01:06:15.098Z,59.25
2023-03-12T01:08:43.894Z,59.61
2023-03-12T01:11:18.642Z,59.51
2023-03-12T01:13:46.848Z,60.26
2023-03-12T01:16:15.190Z,60.73
2023-03-12T01:18:43.704Z,60.20
2023-03-12T01:21:12.163Z,60.57
2023-03-12T01:23:40.518Z,60.66
2023-03-12T01:26:08.991Z,61.23
2023-03-12T01:28:37.474Z,61.38
2023-03-12T01:31:11.305Z,60.64
2023-03-12T01:33:40.387Z,60.72
2023-03-12T01:36:18.707Z,61.50
2023-03-12T01:38:47.254Z,61.58
2023-03-12T01:41:15.705Z,61.61
2023-03-12T01:43:43.923Z,61.57
2023-03-12T01:46:38.731Z,61.85
2023-03-12T01:49:27.342Z,61.87
2023-03-12T01:52:09.294Z,62.36
2023-03-12T01:55:10.516Z,62.50
2023-03-12T01:57:49.020Z,62.62
2023-03-12T02:00:25.485Z,63.64
2023-03-12T02:02:59.993Z,64.05
2023-03-12T02:06:00.445Z,62.69
2023-03-12T02:08:28.933Z,62.28
2023-03-12T02:10:57.399Z,61.11
2023-03-12T02:13:25.994Z,61.28
2023-03-12T02:15:54.961Z,61.40
2023-03-12T02:18:24.047Z,61.23
2023-03-12T02:21:09.536Z,60.56
2023-03-12T02:24:07.056Z,60.87
2023-03-12T02:26:37.563Z,61.23
2023-03-12T02:29:07.415Z,61.38
2023-03-12T02:31:40.990Z,61.48
2023-03-12T02:34:10.125Z,61.71
2023-03-12T02:36:38.708Z,61.25
2023-03-12T02:39:07.298Z,61.64
2023-03-12T02:41:45.704Z,62.05
2023-03-12T02:44:27.460Z,61.56
2023-03-12T02:46:58.623Z,61.25
2023-03-12T02:49:31.825Z,60.16
2023-03-12T02:52:01.436Z,59.61
2023-03-12T02:54:30.827Z,58.86
2023-03-12T02:56:59.308Z,58.95
2023-03-12T02:59:28.213Z,59.63
2023-03-12T03:02:00.888Z,59.18
2023-03-12T03:04:31.325Z,59.16
2023-03-12T03:07:00.000Z,58.89
2023-03-12T03:09:28.271Z,59.53
2023-03-12T03:11:56.754Z,59.98
2023-03-12T03:14:25.457Z,60.16
2023-03-12T03:16:54.309Z,60.49
2023-03-12T03:19:24.314Z,59.29
2023-03-12T03:21:52.721Z,58.73
2023-03-12T03:24:21.502Z,58.79
2023-03-12T03:26:49.874Z,59.29
2023-03-12T03:29:18.217Z,59.25
2023-03-12T03:31:46.653Z,58.96
2023-03-12T03:34:15.091Z,58.72
2023-03-12T03:36:43.390Z,59.01
2023-03-12T03:39:14.545Z,58.52
2023-03-12T03:41:43.099Z,57.36
2023-03-12T03:44:11.390Z,57.00
2023-03-12T03:46:40.641Z,57.33
2023-03-12T03:49:11.328Z,57.28
2023-03-12T03:51:42.800Z,56.76
2023-03-12T03:54:12.882Z,56.43
2023-03-12T03:56:42.000Z,56.20
2023-03-12T03:59:10.982Z,56.98
2023-03-12T04:01:40.185Z,56.58
2023-03-12T04:04:08.574Z,55.96
2023-03-12T04:06:37.537Z,56.20
2023-03-12T04:09:06.015Z,56.30
2023-03-12T04:11:35.073Z,55.87
2023-03-12T04:14:03.998Z,56.73
2023-03-12T04:16:33.723Z,55.96
2023-03-12T04:19:02.510Z,55.32
2023-03-12T04:21:31.051Z,55.79
2023-03-12T04:23:59.409Z,55.83
2023-03-12T04:26:30.967Z,56.25
2023-03-12T04:29:01.141Z,55.17
2023-03-12T04:31:29.776Z,54.37
2023-03-12T04:33:58.615Z,54.62
2023-03-12T04:36:27.216Z,54.89
2023-03-12T04:38:56.594Z,54.95
2023-03-12T04:41:28.640Z,55.29
2023-03-12T04:44:02.550Z,55.45
2023-03-12T04:46:31.852Z,55.88
2023-03-12T04:49:02.804Z,56.41
2023-03-12T04:51:32.910Z,56.95
2023-03-12T04:54:03.238Z,56.63
2023-03-12T04:56:31.897Z,57.14
2023-03-12T04:59:00.610Z,57.56
2023-03-12T05:01:31.860Z,57.45
2023-03-12T05:04:00.375Z,57.98
2023-03-12T05:06:29.553Z,56.65
2023-03-12T05:08:58.060Z,56.61
2023-03-12T05:11:26.347Z,55.81
2023-03-12T05:13:54.666Z,54.29
2023-03-12T05:16:24.581Z,53.04
2023-03-12T05:18:53.160Z,52.26
2023-03-12T05:21:22.261Z,52.21
2023-03-12T05:23:52.951Z,50.98
2023-03-12T05:26:23.113Z,49.64
2023-03-12T05:28:52.595Z,48.41
2023-03-12T05:31:22.164Z,48.14
2023-03-12T05:33:53.006Z,46.30
2023-03-12T05:36:22.352Z,45.43
2023-03-12T05:38:51.030Z,44.21
2023-03-12T05:41:22.065Z,43.69
2023-03-12T05:43:51.911Z,43.17
2023-03-12T05:46:21.132Z,42.07
2023-03-12T05:48:49.862Z,41.66
2023-03-12T05:51:18.544Z,41.90
2023-03-12T05:53:47.323Z,41.84
2023-03-12T05:56:18.043Z,40.83
2023-03-12T05:58:49.630Z,40.34
2023-03-12T06:01:21.702Z,39.16
2023-03-12T06:03:50.410Z,38.01
2023-03-12T06:06:19.737Z,37.78
2023-03-12T06:08:48.609Z,37.48
2023-03-12T06:11:17.378Z,37.32
2023-03-12T06:13:45.710Z,36.58
2023-03-12T06:16:23.365Z,37.00
2023-03-12T06:18:59.971Z,36.74
2023-03-12T06:21:31.267Z,36.19
2023-03-12T06:24:00.514Z,35.94
2023-03-12T06:26:38.593Z,34.15
2023-03-12T06:29:06.800Z,33.74
2023-03-12T06:31:37.307Z,34.65
2023-03-12T06:34:07.057Z,33.90
2023-03-12T06:36:35.363Z,34.13
2023-03-12T06:39:06.510Z,34.10
2023-03-12T06:41:34.926Z,34.24
2023-03-12T06:44:06.386Z,34.08
2023-03-12T06:46:35.397Z,34.29
2023-03-12T06:49:03.996Z,34.03
2023-03-12T06:51:32.071Z,32.49
2023-03-12T06:54:02.678Z,33.53
2023-03-12T06:56:31.585Z,32.67
2023-03-12T06:58:59.633Z,31.94
2023-03-12T07:01:27.914Z,32.55
2023-03-12T07:03:56.196Z,32.46
2023-03-12T07:06:25.280Z,31.72
2023-03-12T07:08:53.646Z,31.76
2023-03-12T07:11:21.814Z,30.28
2023-03-12T07:13:50.126Z,30.84
2023-03-12T07:16:18.393Z,31.09
2023-03-12T07:18:46.638Z,30.35
2023-03-12T07:21:22.669Z,30.61
2023-03-12T07:23:51.363Z,30.29
2023-03-12T07:26:20.256Z,30.26
2023-03-12T07:28:48.544Z,29.48
2023-03-12T07:31:17.162Z,29.42
2023-03-12T07:33:45.525Z,30.37
2023-03-12T07:36:14.426Z,30.21
2023-03-12T07:38:42.773Z,29.98
2023-03-12T07:41:11.211Z,29.23
2023-03-12T07:43:39.524Z,28.74
2023-03-12T07:46:07.876Z,28.14
2023-03-12T07:48:35.969Z,28.21
2023-03-12T07:51:04.716Z,28.39
2023-03-12T07:53:33.371Z,29.14
2023-03-12T07:56:01.532Z,28.70
2023-03-12T07:58:30.008Z,28.37
2023-03-12T08:00:58.127Z,27.74
2023-03-12T08:03:26.747Z,27.91
2023-03-12T08:06:00.497Z,28.93
2023-03-12T08:08:29.588Z,28.63
2023-03-12T08:10:59.418Z,29.42
2023-03-12T08:13:28.211Z,30.11
2023-03-12T08:15:56.557Z,29.97
2023-03-12T08:18:24.981Z,31.05
2023-03-12T08:20:54.597Z,31.48
2023-03-12T08:23:23.313Z,31.26
2023-03-12T08:25:51.779Z,31.59
2023-03-12T08:28:21.862Z,31.79
2023-03-12T08:30:53.121Z,31.20
2023-03-12T08:33:22.428Z,31.94
2023-03-12T08:35:50.986Z,32.68
2023-03-12T08:38:19.941Z,32.13
2023-03-12T08:40:57.298Z,32.28
2023-03-12T08:43:29.036Z,32.07
2023-03-12T08:45:59.662Z,32.31
2023-03-12T08:48:29.839Z,32.76
2023-03-12T08:50:59.950Z,32.95
2023-03-12T08:53:28.275Z,32.93
2023-03-12T08:55:57.595Z,31.59
2023-03-12T08:58:26.584Z,30.90
2023-03-12T09:00:55.549Z,31.41
2023-03-12T09:03:25.269Z,31.28
2023-03-12T09:06:13.208Z,30.80
2023-03-12T09:08:42.092Z,30.74
2023-03-12T09:11:12.478Z,30.52
2023-03-12T09:14:03.901Z,31.34
2023-03-12T09:16:30.716Z,29.86
2023-03-12T09:18:58.889Z,29.47
2023-03-12T09:21:27.144Z,29.44
2023-03-12T09:23:55.324Z,29.23
2023-03-12T09:26:24.302Z,29.11
2023-03-12T09:28:52.499Z,29.63
2023-03-12T09:31:21.118Z,30.56
2023-03-12T09:33:49.431Z,30.72
2023-03-12T09:36:17.908Z,30.34
2023-03-12T09:38:45.999Z,30.37
2023-03-12T09:41:26.807Z,30.10
2023-03-12T09:44:10.300Z,30.50
2023-03-12T09:46:44.903Z,29.86
2023-03-12T09:49:23.257Z,28.58
2023-03-12T09:51:55.813Z,28.77
2023-03-12T09:54:54.966Z,29.77
2023-03-12T09:57:25.211Z,31.20
2023-03-12T09:59:53.660Z,29.90
2023-03-12T10:02:39.842Z,30.35
2023-03-12T10:05:32.433Z,30.41
2023-03-12T10:08:24.883Z,30.08
2023-03-12T10:11:07.835Z,30.20
2023-03-12T10:13:45.085Z,30.74
2023-03-12T10:16:39.162Z,29.76
2023-03-12T10:19:30.326Z,31.19
2023-03-12T10:22:16.742Z,31.28
2023-03-12T10:25:00.181Z,29.57
2023-03-12T10:27:32.787Z,29.55
2023-03-12T10:30:02.449Z,29.26
2023-03-12T10:32:41.129Z,28.66
2023-03-12T10:35:32.926Z,27.83
2023-03-12T10:38:03.935Z,28.13
2023-03-12T10:40:35.674Z,27.83
2023-03-12T10:43:06.998Z,27.99
2023-03-12T10:45:52.496Z,28.94
2023-03-12T10:48:23.692Z,29.53
2023-03-12T10:51:06.993Z,30.54
2023-03-12T10:53:36.248Z,30.14
2023-03-12T10:56:07.707Z,30.02
2023-03-12T10:58:41.993Z,30.38
2023-03-12T11:01:16.007Z,30.98
2023-03-12T11:03:44.493Z,31.40
2023-03-12T11:06:23.464Z,31.97
2023-03-12T11:09:19.021Z,32.45
2023-03-12T11:11:49.084Z,32.44
2023-03-12T11:14:22.022Z,33.17
2023-03-12T11:16:51.138Z,32.81
2023-03-12T11:19:35.187Z,30.73
2023-03-12T11:22:08.135Z,31.03
2023-03-12T11:24:36.419Z,30.23
2023-03-12T11:27:26.284Z,30.05
2023-03-12T11:29:54.826Z,30.33
2023-03-12T11:32:34.708Z,30.69
2023-03-12T11:35:04.656Z,30.95
2023-03-12T11:37:41.931Z,30.72
2023-03-12T11:40:16.982Z,30.44
2023-03-12T11:43:14.426Z,30.87
2023-03-12T11:46:17.365Z,30.07
2023-03-12T11:49:13.133Z,27.83
2023-03-12T11:51:47.232Z,27.42
2023-03-12T11:54:28.518Z,27.20
2023-03-12T11:57:01.662Z,27.73
2023-03-12T11:59:48.839Z,27.28
2023-03-12T12:02:54.512Z,26.56
2023-03-12T12:05:44.766Z,27.02
2023-03-12T12:08:24.926Z,27.66
2023-03-12T12:11:20.031Z,27.96
2023-03-12T12:14:06.954Z,28.63
2023-03-12T12:16:54.250Z,29.13
2023-03-12T12:19:40.749Z,29.28
2023-03-12T12:22:36.368Z,28.61
2023-03-12T12:25:36.842Z,29.60
2023-03-12T12:28:24.566Z,29.16
2023-03-12T12:30:55.377Z,28.94
2023-03-12T12:33:45.154Z,29.33
2023-03-12T12:36:14.700Z,29.54
2023-03-12T12:38:47.173Z,28.73
2023-03-12T12:41:20.741Z,29.02
2023-03-12T12:43:51.469Z,28.35
2023-03-12T12:46:36.700Z,26.99
2023-03-12T12:49:12.359Z,27.68
2023-03-12T12:51:45.814Z,26.65
2023-03-12T12:54:23.970Z,26.26
2023-03-12T12:56:54.938Z,27.03
2023-03-12T12:59:35.124Z,27.73
2023-03-12T13:02:05.340Z,26.84
2023-03-12T13:04:39.688Z,26.78
2023-03-12T13:07:13.891Z,27.83
2023-03-12T13:09:47.973Z,26.46
2023-03-12T13:12:18.972Z,27.23
2023-03-12T13:14:49.316Z,28.47
2023-03-12T13:17:33.933Z,28.63
2023-03-12T13:20:06.069Z,27.61
2023-03-12T13:23:20.609Z,27.57
2023-03-12T13:26:15.890Z,28.96
2023-03-12T13:28:56.729Z,27.38
2023-03-12T13:31:30.974Z,27.07
2023-03-12T13:34:28.340Z,27.15
2023-03-12T13:37:02.257Z,27.57
2023-03-12T13:39:30.570Z,27.34
2023-03-12T13:42:01.019Z,27.85
2023-03-12T13:44:29.132Z,27.59
2023-03-12T13:47:12.084Z,28.17
2023-03-12T13:50:00.002Z,27.17
2023-03-12T13:52:34.229Z,27.26
2023-03-12T13:55:14.570Z,26.74
2023-03-12T13:57:47.870Z,26.61
2023-03-12T14:00:16.570Z,27.79
2023-03-12T14:02:53.560Z,27.86
2023-03-12T14:05:22.384Z,27.50
2023-03-12T14:08:15.467Z,28.17
2023-03-12T14:11:16.501Z,28.76
2023-03-12T14:14:03.373Z,28.07
2023-03-12T14:16:51.980Z,27.82
2023-03-12T14:19:25.372Z,26.89
2023-03-12T14:21:56.124Z,25.98
2023-03-12T14:24:49.152Z,25.66
2023-03-12T14:27:26.976Z,26.42
2023-03-12T14:30:07.523Z,27.74
2023-03-12T14:32:39.517Z,26.84
2023-03-12T14:35:25.976Z,26.82
2023-03-12T14:38:03.882Z,27.81
2023-03-12T14:40:58.123Z,28.24
2023-03-12T14:43:29.013Z,28.45
2023-03-12T14:46:03.686Z,27.84
2023-03-12T14:48:37.145Z,27.94
2023-03-12T14:51:07.564Z,28.05
2023-03-12T14:53:39.851Z,28.48
2023-03-12T14:56:14.063Z,28.73
2023-03-12T14:58:47.840Z,28.01
2023-03-12T15:01:21.181Z,28.84
2023-03-12T15:04:02.733Z,28.76
2023-03-12T15:06:40.441Z,28.61
2023-03-12T15:09:18.715Z,28.18
2023-03-12T15:12:04.934Z,28.39
2023-03-12T15:14:39.248Z,28.60
2023-03-12T15:17:08.752Z,28.78
2023-03-12T15:19:40.372Z,28.72
2023-03-12T15:22:19.150Z,29.50
2023-03-12T15:24:47.550Z,29.89
2023-03-12T15:27:20.233Z,29.88
2023-03-12T15:29:48.452Z,29.18
2023-03-12T15:32:20.959Z,29.42
2023-03-12T15:34:49.925Z,29.23
2023-03-12T15:37:41.413Z,29.44
2023-03-12T15:40:25.648Z,30.14
2023-03-12T15:42:57.544Z,29.66
2023-03-12T15:45:37.577Z,30.07
2023-03-12T15:48:21.227Z,30.34
2023-03-12T15:50:49.506Z,30.93
2023-03-12T15:53:17.471Z,30.90
2023-03-12T15:56:02.384Z,31.26
2023-03-12T15:58:33.951Z,31.07
2023-03-12T16:01:17.084Z,31.56
2023-03-12T16:03:46.034Z,31.86
2023-03-12T16:06:20.566Z,31.83
2023-03-12T16:09:00.182Z,32.22
2023-03-12T16:11:31.872Z,32.28
2023-03-12T16:14:06.926Z,32.52
2023-03-12T16:16:35.145Z,33.24
2023-03-12T16:19:04.176Z,33.84
2023-03-12T16:21:32.241Z,34.12
2023-03-12T16:24:00.262Z,33.89
2023-03-12T16:26:28.657Z,34.02
2023-03-12T16:28:58.244Z,34.07
2023-03-12T16:31:26.464Z,34.08
2023-03-12T16:33:54.654Z,34.21
2023-03-12T16:36:22.954Z,34.82
2023-03-12T16:38:51.270Z,35.70
2023-03-12T16:41:20.033Z,36.20
2023-03-12T16:43:54.127Z,36.55
2023-03-12T16:46:23.378Z,37.29
2023-03-12T16:48:56.120Z,36.76
2023-03-12T16:51:24.939Z,37.52
2023-03-12T16:54:05.467Z,37.14
2023-03-12T16:56:37.389Z,36.40
2023-03-12T16:59:07.050Z,35.85
2023-03-12T17:01:36.859Z,35.92
2023-03-12T17:04:05.049Z,35.58
2023-03-12T17:06:33.395Z,35.82
2023-03-12T17:09:02.497Z,36.68
2023-03-12T17:11:36.030Z,37.57
2023-03-12T17:14:22.036Z,37.28
2023-03-12T17:16:50.876Z,37.19
2023-03-12T17:19:19.034Z,36.34
2023-03-12T17:21:48.659Z,36.55
2023-03-12T17:24:17.127Z,36.62
2023-03-12T17:26:46.606Z,36.33
2023-03-12T17:29:15.103Z,36.17
2023-03-12T17:31:43.188Z,36.10
2023-03-12T17:34:11.286Z,36.47
2023-03-12T17:36:40.551Z,36.28
2023-03-12T17:39:09.036Z,37.27
2023-03-12T17:41:37.991Z,37.02
2023-03-12T17:44:07.295Z,36.54
2023-03-12T17:46:35.611Z,37.41
2023-03-12T17:49:04.087Z,37.81
2023-03-12T17:51:32.251Z,37.26
2023-03-12T17:54:01.692Z,37.16
2023-03-12T17:56:30.333Z,36.40
2023-03-12T17:58:58.413Z,36.46
2023-03-12T18:01:26.493Z,36.43
2023-03-12T18:03:54.645Z,36.13
2023-03-12T18:06:22.696Z,37.04
2023-03-12T18:08:50.893Z,37.97
2023-03-12T18:11:18.986Z,38.69
2023-03-12T18:13:48.675Z,39.29
2023-03-12T18:16:17.374Z,39.34
2023-03-12T18:18:45.748Z,39.49
2023-03-12T18:21:13.800Z,39.21
2023-03-12T18:23:43.858Z,39.15
2023-03-12T18:26:12.592Z,39.27
2023-03-12T18:28:40.605Z,39.59
2023-03-12T18:31:09.570Z,38.44
2023-03-12T18:33:39.069Z,38.11
2023-03-12T18:36:08.217Z,38.23
2023-03-12T18:38:37.564Z,36.93
2023-03-12T18:41:07.962Z,36.94
2023-03-12T18:43:36.919Z,36.55
2023-03-12T18:46:06.271Z,36.74
2023-03-12T18:48:35.720Z,36.92
2023-03-12T18:51:03.899Z,37.59
2023-03-12T18:53:33.362Z,37.77
2023-03-12T18:56:01.460Z,37.06
2023-03-12T18:58:29.837Z,36.42
2023-03-12T19:00:59.375Z,36.32
2023-03-12T19:03:30.762Z,37.46
2023-03-12T19:06:03.442Z,37.03
2023-03-12T19:08:32.048Z,36.80
2023-03-12T19:11:00.222Z,37.07
2023-03-12T19:13:28.267Z,37.25
2023-03-12T19:16:00.819Z,36.68
2023-03-12T19:18:29.614Z,36.78
2023-03-12T19:20:57.912Z,36.97
2023-03-12T19:23:26.258Z,36.84
2023-03-12T19:25:54.455Z,37.85
2023-03-12T19:28:22.642Z,38.31
2023-03-12T19:30:51.015Z,37.80
2023-03-12T19:33:19.054Z,36.95
2023-03-12T19:35:47.164Z,37.84
2023-03-12T19:38:15.299Z,38.29
2023-03-12T19:40:50.110Z,38.67
2023-03-12T19:43:19.974Z,38.56
2023-03-12T19:45:48.833Z,38.71
2023-03-12T19:48:17.185Z,38.08
2023-03-12T19:50:46.092Z,37.79
2023-03-12T19:53:14.568Z,38.14
2023-03-12T19:55:42.662Z,37.76
2023-03-12T19:58:11.145Z,37.99
2023-03-12T20:00:41.375Z,38.11
2023-03-12T20:03:09.977Z,38.72
2023-03-12T20:05:38.426Z,38.07
2023-03-12T20:08:06.774Z,37.96
2023-03-12T20:10:35.701Z,38.59
2023-03-12T20:13:04.073Z,38.90
2023-03-12T20:15:32.127Z,38.99
2023-03-12T20:18:00.531Z,39.05
2023-03-12T20:20:28.966Z,39.07
2023-03-12T20:22:57.679Z,39.03
2023-03-12T20:25:25.807Z,38.97
2023-03-12T20:27:53.836Z,39.10
2023-03-12T20:30:21.918Z,38.74
2023-03-12T20:32:49.987Z,39.03
2023-03-12T20:35:18.312Z,39.22
2023-03-12T20:37:46.614Z,39.97
2023-03-12T20:40:14.986Z,40.29
2023-03-12T20:42:43.568Z,40.34
2023-03-12T20:45:12.016Z,39.71
2023-03-12T20:47:40.463Z,40.34
2023-03-12T20:50:11.148Z,40.43
2023-03-12T20:52:39.336Z,39.96
2023-03-12T20:55:08.226Z,39.38
2023-03-12T20:57:36.287Z,39.04
2023-03-12T21:00:05.648Z,39.43
2023-03-12T21:02:34.732Z,39.46
2023-03-12T21:05:03.064Z,39.61
2023-03-12T21:07:31.205Z,39.56
2023-03-12T21:09:59.424Z,39.62
2023-03-12T21:12:27.674Z,39.83
2023-03-12T21:14:55.671Z,40.52
2023-03-12T21:17:23.732Z,40.49
2023-03-12T21:19:51.903Z,40.47
2023-03-12T21:22:19.973Z,40.69
2023-03-12T21:24:48.558Z,41.30
2023-03-12T21:27:16.646Z,42.08
2023-03-12T21:29:44.797Z,42.35
2023-03-12T21:32:12.977Z,42.58
2023-03-12T21:34:41.007Z,42.08
2023-03-12T21:37:09.288Z,41.85
2023-03-12T21:39:37.591Z,41.26
2023-03-12T21:42:05.867Z,41.02
2023-03-12T21:44:38.261Z,42.20
2023-03-12T21:47:07.232Z,42.65
2023-03-12T21:49:36.134Z,43.02
2023-03-12T21:52:05.416Z,42.63
2023-03-12T21:54:35.785Z,42.90
2023-03-12T21:57:05.146Z,43.18
2023-03-12T21:59:33.027Z,43.35
2023-03-12T22:02:01.395Z,42.68
2023-03-12T22:04:30.262Z,42.09
2023-03-12T22:06:58.474Z,42.05
2023-03-12T22:09:26.750Z,41.33
2023-03-12T22:11:55.306Z,40.96
2023-03-12T22:14:24.787Z,40.78
2023-03-12T22:16:52.903Z,41.41
2023-03-12T22:19:21.678Z,41.84
2023-03-12T22:21:49.970Z,41.90
2023-03-12T22:24:18.524Z,41.50
2023-03-12T22:26:47.208Z,41.02
2023-03-12T22:29:15.371Z,40.95
2023-03-12T22:31:43.593Z,41.39
2023-03-12T22:34:12.228Z,41.58
2023-03-12T22:36:40.514Z,41.73
2023-03-12T22:39:09.143Z,40.90
2023-03-12T22:41:37.704Z,40.65
2023-03-12T22:44:07.568Z,40.55
2023-03-12T22:46:36.478Z,40.62
2023-03-12T22:49:05.229Z,41.58
2023-03-12T22:51:33.957Z,40.79
2023-03-12T22:54:02.357Z,41.25
2023-03-12T22:56:30.712Z,40.99
2023-03-12T22:58:59.391Z,41.13
2023-03-12T23:01:27.710Z,41.10
2023-03-12T23:03:56.167Z,40.36
2023-03-12T23:06:27.323Z,40.65
2023-03-12T23:08:56.273Z,40.19
2023-03-12T23:11:26.993Z,40.83
2023-03-12T23:13:56.112Z,41.42
2023-03-12T23:16:26.149Z,41.24
2023-03-12T23:18:56.515Z,41.71
2023-03-12T23:21:26.051Z,41.30
2023-03-12T23:23:54.528Z,40.72
2023-03-12T23:26:26.769Z,41.16
2023-03-12T23:28:57.214Z,41.58
2023-03-12T23:31:27.932Z,40.63
2023-03-12T23:33:58.657Z,41.95
2023-03-12T23:36:27.495Z,41.11
2023-03-12T23:38:55.643Z,40.56
2023-03-12T23:41:31.517Z,40.74
2023-03-12T23:44:00.489Z,41.35
2023-03-12T23:46:29.096Z,42.40
2023-03-12T23:48:58.066Z,41.70
2023-03-12T23:51:32.310Z,43.30
2023-03-12T23:54:05.486Z,44.00
2023-03-12T23:56:41.392Z,44.43
2023-03-12T23:59:11.142Z,43.40
